createdAt,value
2023-05-09T00:00:53.252Z,19116.6426
2023-05-09T00:02:01.404Z,19116.2148
2023-05-09T00:03:09.649Z,19116.5000
2023-05-09T00:04:17.689Z,19116.2148
2023-05-09T00:05:25.621Z,19124.0000
2023-05-09T00:06:33.719Z,19120.4277
2023-05-09T00:07:41.758Z,19117.6426
2023-05-09T00:08:49.812Z,19118.6426
2023-05-09T00:09:57.968Z,19117.2148
2023-05-09T00:11:06.000Z,19119.3574
2023-05-09T00:12:14.021Z,19121.0000
2023-05-09T00:13:22.140Z,19124.2852
2023-05-09T00:14:30.049Z,19124.3574
2023-05-09T00:15:38.093Z,19123.5000
2023-05-09T00:16:46.157Z,19125.2852
2023-05-09T00:17:54.434Z,19126.2148
2023-05-09T00:19:02.399Z,19128.5723
2023-05-09T00:20:10.467Z,19127.0000
2023-05-09T00:21:18.519Z,19125.7852
2023-05-09T00:22:26.525Z,19132.3574
2023-05-09T00:23:34.611Z,19130.7852
2023-05-09T00:24:42.717Z,19135.2148
2023-05-09T00:25:50.804Z,19136.3574
2023-05-09T00:26:58.860Z,19138.6426
2023-05-09T00:28:06.827Z,19140.0000
2023-05-09T00:29:14.781Z,19142.6426
2023-05-09T00:30:22.847Z,19143.2148
2023-05-09T00:31:30.937Z,19139.5000
2023-05-09T00:32:39.145Z,19141.0000
2023-05-09T00:33:47.298Z,19139.7852
2023-05-09T00:34:55.356Z,19137.2852
2023-05-09T00:36:03.306Z,19144.9277
2023-05-09T00:37:11.326Z,19147.5000
2023-05-09T00:38:19.630Z,19144.8574
2023-05-09T00:39:27.702Z,19145.0000
2023-05-09T00:40:35.691Z,19145.7148
2023-05-09T00:41:43.574Z,19142.8574
2023-05-09T00:42:51.632Z,19145.7148
2023-05-09T00:43:59.577Z,19141.3574
2023-05-09T00:45:07.656Z,19138.0723
2023-05-09T00:46:15.762Z,19138.5723
2023-05-09T00:47:23.913Z,19138.2148
2023-05-09T00:48:31.954Z,19134.5723
2023-05-09T00:49:40.100Z,19135.8574
2023-05-09T00:50:48.167Z,19140.6426
2023-05-09T00:51:56.109Z,19140.8574
2023-05-09T00:53:04.183Z,19139.3574
2023-05-09T00:54:12.255Z,19138.0723
2023-05-09T00:55:20.330Z,19144.7852
2023-05-09T00:56:28.556Z,19148.3574
2023-05-09T00:57:36.551Z,19145.1426
2023-05-09T00:58:44.338Z,19144.4277
2023-05-09T00:59:52.881Z,19144.0723
2023-05-09T01:01:00.511Z,19143.5723
2023-05-09T01:02:08.702Z,19145.5723
2023-05-09T01:03:16.755Z,19146.2852
2023-05-09T01:04:24.732Z,19144.5000
2023-05-09T01:05:33.049Z,19146.0000
2023-05-09T01:06:41.071Z,19145.5000
2023-05-09T01:07:48.938Z,19147.0723
2023-05-09T01:08:57.100Z,19147.2852
2023-05-09T01:10:05.048Z,19147.6426
2023-05-09T01:11:13.206Z,19148.0723
2023-05-09T01:12:21.205Z,19146.0000
2023-05-09T01:13:29.122Z,19145.9277
2023-05-09T01:14:37.230Z,19145.8574
2023-05-09T01:15:45.284Z,19143.2852
2023-05-09T01:16:53.436Z,19144.3574
2023-05-09T01:18:01.538Z,19141.5723
2023-05-09T01:19:09.540Z,19143.1426
2023-05-09T01:20:17.684Z,19141.2852
2023-05-09T01:21:25.842Z,19143.7852
2023-05-09T01:22:33.805Z,19144.2148
2023-05-09T01:23:41.880Z,19140.7852
2023-05-09T01:24:49.866Z,19145.6426
2023-05-09T01:25:57.967Z,19143.2852
2023-05-09T01:27:06.051Z,19140.9277
2023-05-09T01:28:14.045Z,19141.1426
2023-05-09T01:29:21.950Z,19144.0723
2023-05-09T01:30:30.026Z,19147.5000
2023-05-09T01:31:38.201Z,19150.8574
2023-05-09T01:32:46.368Z,19150.6426
2023-05-09T01:33:54.356Z,19154.5723
2023-05-09T01:35:02.484Z,19155.7148
2023-05-09T01:36:10.471Z,19157.8574
2023-05-09T01:37:18.737Z,19159.3574
2023-05-09T01:38:26.684Z,19158.4277
2023-05-09T01:39:34.655Z,19156.4277
2023-05-09T01:40:42.693Z,19157.3574
2023-05-09T01:41:50.786Z,19156.5000
2023-05-09T01:42:58.902Z,19158.8574
2023-05-09T01:44:06.874Z,19155.8574
2023-05-09T01:45:15.020Z,19158.1426
2023-05-09T01:46:23.037Z,19159.0723
2023-05-09T01:47:31.112Z,19161.1426
2023-05-09T01:48:39.119Z,19166.8574
2023-05-09T01:49:47.264Z,19168.4277
2023-05-09T01:50:55.358Z,19167.2148
2023-05-09T01:52:03.304Z,19165.9277
2023-05-09T01:53:11.554Z,19168.1426
2023-05-09T01:54:19.525Z,19168.1426
2023-05-09T01:55:27.554Z,19170.8574
2023-05-09T01:56:35.654Z,19173.7148
2023-05-09T01:57:43.673Z,19173.6426
2023-05-09T01:58:51.588Z,19171.7148
2023-05-09T01:59:59.641Z,19171.3574
2023-05-09T02:01:07.744Z,19167.7148
2023-05-09T02:02:16.003Z,19170.0723
2023-05-09T02:03:23.922Z,19173.3574
2023-05-09T02:04:31.995Z,19173.5723
2023-05-09T02:05:40.052Z,19172.8574
2023-05-09T02:06:48.186Z,19173.1426
2023-05-09T02:07:56.263Z,19171.2148
2023-05-09T02:09:04.363Z,19173.9277
2023-05-09T02:10:12.344Z,19175.7148
2023-05-09T02:11:20.443Z,19179.1426
2023-05-09T02:12:28.416Z,19176.7148
2023-05-09T02:13:36.369Z,19180.8574
2023-05-09T02:14:44.432Z,19181.7148
2023-05-09T02:15:52.496Z,19182.1426
2023-05-09T02:17:00.853Z,19184.7148
2023-05-09T02:18:08.728Z,19186.3574
2023-05-09T02:19:16.828Z,19186.5723
2023-05-09T02:20:24.866Z,19186.6426
2023-05-09T02:21:32.911Z,19185.0000
2023-05-09T02:22:41.170Z,19180.2852
2023-05-09T02:23:49.037Z,19176.0723
2023-05-09T02:24:57.193Z,19175.0723
2023-05-09T02:26:05.365Z,19172.6426
2023-05-09T02:27:13.304Z,19172.6426
2023-05-09T02:28:21.160Z,19176.5000
2023-05-09T02:29:29.210Z,19173.0723
2023-05-09T02:30:37.284Z,19171.4277
2023-05-09T02:31:45.554Z,19170.7148
2023-05-09T02:32:53.558Z,19165.7148
2023-05-09T02:34:01.589Z,19167.0723
2023-05-09T02:35:09.638Z,19165.7148
2023-05-09T02:36:17.751Z,19168.7148
2023-05-09T02:37:25.854Z,19163.0723
2023-05-09T02:38:33.838Z,19162.7852
2023-05-09T02:39:41.925Z,19164.0723
2023-05-09T02:40:52.150Z,19161.4277
2023-05-09T02:42:02.811Z,19162.2676
2023-05-09T02:43:10.862Z,19160.7852
2023-05-09T02:44:18.864Z,19158.7148
2023-05-09T02:45:27.146Z,19161.9277
2023-05-09T02:46:35.167Z,19163.3574
2023-05-09T02:47:43.293Z,19165.7852
2023-05-09T02:48:51.276Z,19167.5000
2023-05-09T02:49:59.416Z,19167.2148
2023-05-09T02:51:07.384Z,19167.8574
2023-05-09T02:52:15.430Z,19172.5000
2023-05-09T02:53:23.514Z,19168.5000
2023-05-09T02:54:31.543Z,19163.2852
2023-05-09T02:55:39.603Z,19160.7148
2023-05-09T02:56:47.590Z,19155.4277
2023-05-09T02:58:09.395Z,19156.9277
2023-05-09T02:59:08.671Z,19155.0664
2023-05-09T03:00:16.717Z,19158.7148
2023-05-09T03:01:25.055Z,19160.2852
2023-05-09T03:02:32.925Z,19159.3574
2023-05-09T03:03:41.171Z,19158.4277
2023-05-09T03:04:49.152Z,19160.6426
2023-05-09T03:05:57.134Z,19160.7852
2023-05-09T03:07:05.072Z,19160.8574
2023-05-09T03:08:13.259Z,19157.2148
2023-05-09T03:09:21.230Z,19158.4277
2023-05-09T03:10:29.125Z,19155.6426
2023-05-09T03:11:37.201Z,19155.1426
2023-05-09T03:12:45.361Z,19155.2148
2023-05-09T03:13:53.491Z,19155.5723
2023-05-09T03:15:01.497Z,19146.1426
2023-05-09T03:16:09.717Z,19142.0723
2023-05-09T03:17:17.630Z,19142.0000
2023-05-09T03:18:25.720Z,19135.3574
2023-05-09T03:19:33.735Z,19133.7852
2023-05-09T03:20:41.934Z,19134.0723
2023-05-09T03:21:49.880Z,19133.4277
2023-05-09T03:22:58.055Z,19134.4277
2023-05-09T03:24:05.983Z,19134.0723
2023-05-09T03:25:14.092Z,19128.7148
2023-05-09T03:26:22.000Z,19128.4277
2023-05-09T03:27:30.049Z,19125.7148
2023-05-09T03:28:38.203Z,19125.2852
2023-05-09T03:29:46.384Z,19120.7852
2023-05-09T03:30:54.324Z,19117.4277
2023-05-09T03:32:02.437Z,19118.5000
2023-05-09T03:33:10.493Z,19119.0000
2023-05-09T03:34:18.511Z,19115.8574
2023-05-09T03:35:26.759Z,19116.8574
2023-05-09T03:36:34.630Z,19118.2148
2023-05-09T03:37:42.874Z,19120.7148
2023-05-09T03:38:50.790Z,19117.2148
2023-05-09T03:39:58.703Z,19117.1426
2023-05-09T03:41:06.768Z,19115.7852
2023-05-09T03:42:14.835Z,19114.7148
2023-05-09T03:43:22.997Z,19114.3574
2023-05-09T03:44:31.112Z,19116.8574
2023-05-09T03:45:39.200Z,19114.0723
2023-05-09T03:46:47.277Z,19109.0723
2023-05-09T03:47:55.296Z,19109.7148
2023-05-09T03:49:03.326Z,19113.0723
2023-05-09T03:50:11.588Z,19111.3574
2023-05-09T03:51:19.464Z,19112.0000
2023-05-09T03:52:27.553Z,19105.2852
2023-05-09T03:53:35.679Z,19103.7148
2023-05-09T03:54:43.555Z,19105.4277
2023-05-09T03:55:51.617Z,19106.8574
2023-05-09T03:56:59.733Z,19105.6426
2023-05-09T03:58:07.918Z,19105.1426
2023-05-09T03:59:15.966Z,19107.1426
2023-05-09T04:00:24.050Z,19105.1426
2023-05-09T04:01:32.331Z,19104.8574
2023-05-09T04:02:40.261Z,19101.7148
2023-05-09T04:03:48.258Z,19100.3574
2023-05-09T04:04:56.297Z,19101.7852
2023-05-09T04:06:04.321Z,19098.0723
2023-05-09T04:07:12.463Z,19100.7852
2023-05-09T04:08:20.501Z,19103.3574
2023-05-09T04:09:28.347Z,19102.2852
2023-05-09T04:10:36.418Z,19101.9277
2023-05-09T04:11:44.473Z,19099.4277
2023-05-09T04:12:52.750Z,19100.0723
2023-05-09T04:14:00.705Z,19096.3574
2023-05-09T04:15:08.783Z,19098.2148
2023-05-09T04:16:16.870Z,19096.1426
2023-05-09T04:17:25.174Z,19095.7852
2023-05-09T04:18:33.138Z,19092.7852
2023-05-09T04:19:41.019Z,19090.0723
2023-05-09T04:20:49.085Z,19087.0723
2023-05-09T04:21:57.198Z,19089.0000
2023-05-09T04:23:05.213Z,19087.1426
2023-05-09T04:24:13.180Z,19087.7148
2023-05-09T04:25:21.196Z,19090.7148
2023-05-09T04:26:29.247Z,19094.1426
2023-05-09T04:27:37.436Z,19094.3574
2023-05-09T04:28:45.707Z,19089.1426
2023-05-09T04:29:53.559Z,19085.1426
2023-05-09T04:31:01.623Z,19087.7852
2023-05-09T04:32:09.706Z,19085.1426
2023-05-09T04:33:18.122Z,19076.8574
2023-05-09T04:34:25.864Z,19074.3574
2023-05-09T04:35:33.879Z,19075.3574
2023-05-09T04:36:42.002Z,19073.0723
2023-05-09T04:37:50.002Z,19071.7852
2023-05-09T04:38:57.970Z,19071.1426
2023-05-09T04:40:06.030Z,19073.2148
2023-05-09T04:41:14.060Z,19074.4277
2023-05-09T04:42:22.226Z,19070.9277
2023-05-09T04:43:30.292Z,19069.5000
2023-05-09T04:44:38.388Z,19065.9277
2023-05-09T04:45:46.375Z,19065.2148
2023-05-09T04:46:54.472Z,19061.7148
2023-05-09T04:48:02.591Z,19059.2148
2023-05-09T04:49:10.868Z,19062.0723
2023-05-09T04:50:18.656Z,19060.7852
2023-05-09T04:51:26.803Z,19059.3574
2023-05-09T04:52:34.784Z,19058.5000
2023-05-09T04:53:42.704Z,19053.0000
2023-05-09T04:54:50.800Z,19053.3574
2023-05-09T04:55:58.825Z,19051.3574
2023-05-09T04:57:17.321Z,19050.7852
2023-05-09T04:58:20.071Z,19046.0664
2023-05-09T04:59:28.006Z,19043.0723
2023-05-09T05:00:36.103Z,19048.7852
2023-05-09T05:01:44.140Z,19048.5000
2023-05-09T05:02:52.183Z,19048.7852
2023-05-09T05:04:00.269Z,19049.5723
2023-05-09T05:05:12.112Z,19054.1426
2023-05-09T05:06:21.098Z,19048.0664
2023-05-09T05:07:29.153Z,19047.8574
2023-05-09T05:08:37.193Z,19048.5723
2023-05-09T05:09:45.436Z,19051.8574
2023-05-09T05:10:53.516Z,19050.5723
2023-05-09T05:12:03.222Z,19046.2148
2023-05-09T05:13:14.455Z,19047.5996
2023-05-09T05:14:22.500Z,19046.1426
2023-05-09T05:15:30.622Z,19043.2852
2023-05-09T05:16:38.634Z,19043.0723
2023-05-09T05:17:46.794Z,19038.7148
2023-05-09T05:18:54.802Z,19041.2852
2023-05-09T05:20:02.653Z,19044.9277
2023-05-09T05:21:10.865Z,19042.7148
2023-05-09T05:22:18.793Z,19042.2148
2023-05-09T05:23:27.146Z,19046.6426
2023-05-09T05:24:34.990Z,19041.5000
2023-05-09T05:25:43.163Z,19035.0000
2023-05-09T05:26:51.143Z,19033.7148
2023-05-09T05:27:59.209Z,19030.5723
2023-05-09T05:29:07.270Z,19029.7852
2023-05-09T05:30:15.333Z,19032.6426
2023-05-09T05:31:23.436Z,19029.1426
2023-05-09T05:32:31.498Z,19029.5000
2023-05-09T05:33:39.498Z,19029.3574
2023-05-09T05:34:47.426Z,19027.2148
2023-05-09T05:35:55.528Z,19024.9277
2023-05-09T05:37:03.589Z,19022.2148
2023-05-09T05:38:11.730Z,19026.5723
2023-05-09T05:39:19.912Z,19025.2852
2023-05-09T05:40:27.847Z,19026.0723
2023-05-09T05:41:35.963Z,19023.0723
2023-05-09T05:42:43.952Z,19024.5000
2023-05-09T05:43:54.114Z,19025.9277
2023-05-09T05:45:04.926Z,19019.2676
2023-05-09T05:46:13.233Z,19015.9277
2023-05-09T05:47:20.894Z,19015.0723
2023-05-09T05:48:28.975Z,19013.5000
2023-05-09T05:49:37.028Z,19016.2852
2023-05-09T05:50:45.279Z,19018.5000
2023-05-09T05:51:53.285Z,19017.8574
2023-05-09T05:53:01.408Z,19017.5723
2023-05-09T05:54:09.551Z,19017.7148
2023-05-09T05:55:17.610Z,19021.0723
2023-05-09T05:56:25.580Z,19020.3574
2023-05-09T05:57:33.651Z,19021.1426
2023-05-09T05:58:41.684Z,19019.8574
2023-05-09T05:59:49.695Z,19020.0000
2023-05-09T06:00:57.786Z,19019.5000
2023-05-09T06:02:05.783Z,19018.7148
2023-05-09T06:03:13.867Z,19016.0723
2023-05-09T06:04:22.110Z,19017.8574
2023-05-09T06:05:29.986Z,19015.2148
2023-05-09T06:06:38.123Z,19015.3574
2023-05-09T06:07:46.140Z,19014.7852
2023-05-09T06:08:54.236Z,19010.0723
2023-05-09T06:10:02.427Z,19007.7852
2023-05-09T06:11:10.281Z,19010.0000
2023-05-09T06:12:18.413Z,19004.4277
2023-05-09T06:13:26.589Z,19002.2852
2023-05-09T06:14:34.487Z,18999.8574
2023-05-09T06:15:42.559Z,19003.7852
2023-05-09T06:16:50.551Z,19002.5000
2023-05-09T06:17:58.657Z,19006.3574
2023-05-09T06:19:06.636Z,19006.0723
2023-05-09T06:20:15.006Z,19003.1426
2023-05-09T06:21:22.862Z,19001.2852
2023-05-09T06:22:30.968Z,19004.6426
2023-05-09T06:23:42.638Z,19003.0723
2023-05-09T06:24:51.953Z,19001.5332
2023-05-09T06:26:00.108Z,19000.4277
2023-05-09T06:27:07.963Z,19004.0000
2023-05-09T06:28:16.138Z,19001.6426
2023-05-09T06:29:24.185Z,19002.5000
2023-05-09T06:30:32.055Z,19008.8574
2023-05-09T06:31:40.187Z,19006.7852
2023-05-09T06:32:48.239Z,19005.7852
2023-05-09T06:33:56.368Z,19005.5723
2023-05-09T06:35:04.402Z,19004.8574
2023-05-09T06:36:12.564Z,19005.9277
2023-05-09T06:37:20.559Z,19004.5723
2023-05-09T06:38:28.652Z,18998.0000
2023-05-09T06:39:36.712Z,18996.5000
2023-05-09T06:40:44.762Z,18997.8574
2023-05-09T06:41:52.787Z,18998.5000
2023-05-09T06:43:00.962Z,18999.0723
2023-05-09T06:44:08.960Z,18998.1426
2023-05-09T06:45:17.314Z,19004.5000
2023-05-09T06:46:24.903Z,19006.7852
2023-05-09T06:47:33.000Z,19004.0723
2023-05-09T06:48:41.151Z,19005.4277
2023-05-09T06:49:49.255Z,19012.2148
2023-05-09T06:50:57.275Z,19015.9277
2023-05-09T06:52:05.325Z,19018.0000
2023-05-09T06:53:13.528Z,19018.6426
2023-05-09T06:54:21.492Z,19019.5723
2023-05-09T06:55:29.585Z,19024.5000
2023-05-09T06:56:37.641Z,19021.9277
2023-05-09T06:57:45.657Z,19021.1426
2023-05-09T06:58:53.860Z,19021.8574
2023-05-09T07:00:01.694Z,19020.0000
2023-05-09T07:01:09.765Z,19019.2852
2023-05-09T07:02:17.783Z,19021.3574
2023-05-09T07:03:26.209Z,19016.7148
2023-05-09T07:04:34.111Z,19012.8574
2023-05-09T07:05:42.138Z,19011.4277
2023-05-09T07:06:50.174Z,19007.8574
2023-05-09T07:07:58.231Z,19010.6426
2023-05-09T07:09:06.422Z,19008.4277
2023-05-09T07:10:14.375Z,19013.0000
2023-05-09T07:11:22.402Z,19008.5723
2023-05-09T07:12:30.556Z,19007.8574
2023-05-09T07:13:38.708Z,19007.1426
2023-05-09T07:14:46.432Z,19011.7852
2023-05-09T07:15:54.541Z,19015.4277
2023-05-09T07:17:18.251Z,19017.2148
2023-05-09T07:18:15.603Z,19022.9336
2023-05-09T07:19:23.678Z,19025.4277
2023-05-09T07:20:31.832Z,19026.2852
2023-05-09T07:21:39.753Z,19029.4277
2023-05-09T07:22:47.854Z,19028.8574
2023-05-09T07:23:55.933Z,19028.5723
2023-05-09T07:25:03.913Z,19031.1426
2023-05-09T07:26:12.035Z,19030.0723
2023-05-09T07:27:20.068Z,19026.6426
2023-05-09T07:28:28.048Z,19022.8574
2023-05-09T07:29:36.107Z,19029.7148
2023-05-09T07:30:44.115Z,19030.2148
2023-05-09T07:31:52.349Z,19030.2148
2023-05-09T07:33:00.503Z,19029.0723
2023-05-09T07:34:08.372Z,19030.0000
2023-05-09T07:35:16.751Z,19027.7852
2023-05-09T07:36:24.502Z,19027.2148
2023-05-09T07:37:32.600Z,19027.0723
2023-05-09T07:38:40.640Z,19030.8574
2023-05-09T07:39:48.801Z,19030.9277
2023-05-09T07:40:56.791Z,19033.2148
2023-05-09T07:42:04.875Z,19028.4277
2023-05-09T07:43:12.774Z,19024.5723
2023-05-09T07:44:20.850Z,19021.6426
2023-05-09T07:45:28.900Z,19021.7852
2023-05-09T07:46:37.076Z,19023.8574
2023-05-09T07:47:45.131Z,19025.6426
2023-05-09T07:48:53.347Z,19028.2148
2023-05-09T07:50:01.210Z,19031.0000
2023-05-09T07:51:09.301Z,19034.2852
2023-05-09T07:52:17.312Z,19028.2852
2023-05-09T07:53:25.543Z,19025.4277
2023-05-09T07:54:33.422Z,19021.0000
2023-05-09T07:55:41.755Z,19018.6426
2023-05-09T07:56:49.598Z,19013.0000
2023-05-09T07:57:57.601Z,19006.5723
2023-05-09T07:59:05.520Z,19001.6426
2023-05-09T08:00:13.628Z,18997.8574
2023-05-09T08:01:21.639Z,18997.5000
2023-05-09T08:02:29.906Z,18996.8574
2023-05-09T08:03:38.053Z,18995.1426
2023-05-09T08:04:46.153Z,18992.9277
2023-05-09T08:05:54.086Z,18989.2148
2023-05-09T08:07:02.190Z,18986.1426
2023-05-09T08:08:10.156Z,18982.7148
2023-05-09T08:09:18.209Z,18978.1426
2023-05-09T08:10:26.264Z,18968.6426
2023-05-09T08:11:34.616Z,18977.1426
2023-05-09T08:12:42.480Z,18972.2148
2023-05-09T08:13:50.504Z,18967.7148
2023-05-09T08:14:58.383Z,18963.8574
2023-05-09T08:16:06.556Z,18962.2148
2023-05-09T08:17:14.555Z,18961.3574
2023-05-09T08:18:22.621Z,18957.1426
2023-05-09T08:19:30.706Z,18956.5723
2023-05-09T08:20:38.875Z,18956.0723
2023-05-09T08:21:46.806Z,18955.1426
2023-05-09T08:22:54.907Z,18955.3574
2023-05-09T08:24:02.930Z,18958.8574
2023-05-09T08:25:10.991Z,18963.3574
2023-05-09T08:26:19.064Z,18957.8574
2023-05-09T08:27:27.131Z,18959.3574
2023-05-09T08:28:35.285Z,18962.0723
2023-05-09T08:29:43.189Z,18963.4277
2023-05-09T08:30:51.204Z,18962.2148
2023-05-09T08:31:59.416Z,18965.2148
2023-05-09T08:33:07.502Z,18964.2148
2023-05-09T08:34:15.463Z,18966.5723
2023-05-09T08:35:23.539Z,18968.8574
2023-05-09T08:36:31.743Z,18971.3574
2023-05-09T08:37:39.776Z,18973.5723
2023-05-09T08:38:47.748Z,18977.3574
2023-05-09T08:39:55.987Z,18975.4277
2023-05-09T08:41:03.866Z,18977.0000
2023-05-09T08:42:11.916Z,18980.2852
2023-05-09T08:43:19.988Z,18985.1426
2023-05-09T08:44:27.911Z,18983.5723
2023-05-09T08:45:35.955Z,18988.1426
2023-05-09T08:46:44.050Z,18987.2148
2023-05-09T08:47:52.235Z,18986.7148
2023-05-09T08:49:00.343Z,18985.9277
2023-05-09T08:50:08.320Z,18980.4277
2023-05-09T08:51:16.365Z,18976.1426
2023-05-09T08:52:24.617Z,18974.7852
2023-05-09T08:53:32.641Z,18973.2148
2023-05-09T08:54:40.521Z,18965.5000
2023-05-09T08:55:48.591Z,18967.6426
2023-05-09T08:56:56.716Z,18969.6426
2023-05-09T08:58:05.315Z,18970.5000
2023-05-09T08:59:12.646Z,18967.7148
2023-05-09T09:00:21.155Z,18966.0000
2023-05-09T09:01:28.812Z,18967.5723
2023-05-09T09:02:36.997Z,18965.2148
2023-05-09T09:03:45.130Z,18962.9277
2023-05-09T09:04:53.105Z,18965.7148
2023-05-09T09:06:01.132Z,18966.8574
2023-05-09T09:07:09.220Z,18967.5000
2023-05-09T09:08:17.412Z,18967.2852
2023-05-09T09:09:25.363Z,18967.7852
2023-05-09T09:10:33.350Z,18965.5000
2023-05-09T09:11:41.451Z,18961.1426
2023-05-09T09:12:50.235Z,18961.9277
2023-05-09T09:13:57.487Z,18961.1426
2023-05-09T09:15:05.451Z,18960.5000
2023-05-09T09:16:13.537Z,18959.0723
2023-05-09T09:17:21.661Z,18959.6426
2023-05-09T09:18:29.742Z,18958.4277
2023-05-09T09:19:37.767Z,18955.2148
2023-05-09T09:20:45.800Z,18954.8574
2023-05-09T09:21:53.894Z,18951.0723
2023-05-09T09:23:01.934Z,18951.5000
2023-05-09T09:24:10.030Z,18948.0000
2023-05-09T09:25:18.155Z,18946.3574
2023-05-09T09:26:26.190Z,18946.9277
2023-05-09T09:27:34.154Z,18941.2148
2023-05-09T09:28:42.133Z,18937.2852
2023-05-09T09:29:50.231Z,18936.4277
2023-05-09T09:30:58.241Z,18933.6426
2023-05-09T09:32:06.546Z,18934.0723
2023-05-09T09:33:14.545Z,18933.3574
2023-05-09T09:34:22.684Z,18934.4277
2023-05-09T09:35:30.776Z,18928.6426
2023-05-09T09:36:38.678Z,18927.9277
2023-05-09T09:37:46.750Z,18928.9277
2023-05-09T09:38:54.791Z,18927.9277
2023-05-09T09:40:02.865Z,18927.5000
2023-05-09T09:41:10.967Z,18927.9277
2023-05-09T09:42:19.089Z,18927.7148
2023-05-09T09:43:26.938Z,18931.8574
2023-05-09T09:44:34.960Z,18938.1426
2023-05-09T09:45:43.203Z,18943.7852
2023-05-09T09:46:51.296Z,18940.5000
2023-05-09T09:47:59.269Z,18938.5723
2023-05-09T09:49:07.280Z,18946.5723
2023-05-09T09:50:15.908Z,18945.3574
2023-05-09T09:51:23.455Z,18939.5000
2023-05-09T09:52:31.504Z,18937.3574
2023-05-09T09:53:39.540Z,18932.5000
2023-05-09T09:54:47.676Z,18929.2852
2023-05-09T09:55:55.745Z,18928.9277
2023-05-09T09:57:03.698Z,18923.3574
2023-05-09T09:58:11.664Z,18919.7852
2023-05-09T09:59:19.770Z,18915.3574
2023-05-09T10:00:27.780Z,18911.0000
2023-05-09T10:01:35.990Z,18909.1426
2023-05-09T10:02:44.083Z,18899.7148
2023-05-09T10:03:52.109Z,18891.0000
2023-05-09T10:05:00.173Z,18881.4277
2023-05-09T10:06:08.387Z,18862.6426
2023-05-09T10:07:16.408Z,18846.1426
2023-05-09T10:08:24.387Z,18827.5000
2023-05-09T10:09:32.445Z,18812.1426
2023-05-09T10:10:40.469Z,18799.4277
2023-05-09T10:11:48.534Z,18783.5000
2023-05-09T10:12:56.600Z,18776.1426
2023-05-09T10:14:04.555Z,18772.3574
2023-05-09T10:15:12.612Z,18766.0000
2023-05-09T10:16:25.903Z,18751.5000
2023-05-09T10:17:33.859Z,18745.8008
2023-05-09T10:18:42.020Z,18737.1426
2023-05-09T10:19:49.805Z,18734.3574
2023-05-09T10:20:57.847Z,18732.7852
2023-05-09T10:22:06.321Z,18730.0723
2023-05-09T10:23:14.133Z,18723.7852
2023-05-09T10:24:22.097Z,18721.5000
2023-05-09T10:25:30.276Z,18716.0723
2023-05-09T10:26:38.066Z,18715.7148
2023-05-09T10:27:46.185Z,18715.2148
2023-05-09T10:28:54.187Z,18716.4277
2023-05-09T10:30:02.377Z,18717.5000
2023-05-09T10:31:10.476Z,18723.3574
2023-05-09T10:32:18.491Z,18722.2852
2023-05-09T10:33:26.632Z,18723.2852
2023-05-09T10:34:34.639Z,18733.2148
2023-05-09T10:35:42.653Z,18739.5000
2023-05-09T10:36:50.721Z,18741.0723
2023-05-09T10:37:58.848Z,18747.3574
2023-05-09T10:39:07.370Z,18746.9277
2023-05-09T10:40:14.798Z,18746.1426
2023-05-09T10:41:22.889Z,18739.7852
2023-05-09T10:42:30.929Z,18740.5723
2023-05-09T10:43:39.092Z,18735.5723
2023-05-09T10:44:47.112Z,18738.3574
2023-05-09T10:45:55.226Z,18741.3574
2023-05-09T10:47:03.433Z,18745.6426
2023-05-09T10:48:11.321Z,18751.7852
2023-05-09T10:49:19.451Z,18757.9277
2023-05-09T10:50:27.441Z,18758.6426
2023-05-09T10:51:35.515Z,18763.2852
2023-05-09T10:52:43.557Z,18764.0000
2023-05-09T10:53:51.647Z,18765.2852
2023-05-09T10:54:59.599Z,18765.7852
2023-05-09T10:56:07.647Z,18760.0000
2023-05-09T10:57:15.667Z,18756.0000
2023-05-09T10:58:23.888Z,18756.0000
2023-05-09T10:59:31.981Z,18753.7852
2023-05-09T11:00:40.002Z,18754.5000
2023-05-09T11:01:48.343Z,18757.5723
2023-05-09T11:02:56.175Z,18756.4277
2023-05-09T11:04:04.249Z,18759.3574
2023-05-09T11:05:12.389Z,18766.2852
2023-05-09T11:06:20.260Z,18765.4277
2023-05-09T11:07:28.463Z,18766.9277
2023-05-09T11:08:36.406Z,18767.0000
2023-05-09T11:09:44.328Z,18776.0723
2023-05-09T11:10:52.507Z,18784.5723
2023-05-09T11:12:00.482Z,18791.3574
2023-05-09T11:13:08.676Z,18795.4277
2023-05-09T11:14:16.746Z,18797.8574
2023-05-09T11:15:24.642Z,18809.4277
2023-05-09T11:16:32.933Z,18810.7852
2023-05-09T11:17:40.867Z,18816.2148
2023-05-09T11:18:49.125Z,18826.0000
2023-05-09T11:19:56.969Z,18829.3574
2023-05-09T11:21:05.048Z,18829.7852
2023-05-09T11:22:13.112Z,18834.5000
2023-05-09T11:23:21.160Z,18837.8574
2023-05-09T11:24:29.125Z,18844.2148
2023-05-09T11:25:37.152Z,18844.4277
2023-05-09T11:26:45.287Z,18847.0000
2023-05-09T11:27:53.386Z,18850.1426
2023-05-09T11:29:01.551Z,18852.5000
2023-05-09T11:30:09.505Z,18850.0000
2023-05-09T11:31:17.588Z,18853.8574
2023-05-09T11:32:25.625Z,18855.7852
2023-05-09T11:33:33.694Z,18859.8574
2023-05-09T11:34:41.960Z,18862.2852
2023-05-09T11:35:49.775Z,18863.5723
2023-05-09T11:36:57.847Z,18861.5000
2023-05-09T11:38:05.943Z,18863.0723
2023-05-09T11:39:13.906Z,18862.6426
2023-05-09T11:40:21.991Z,18861.0723
2023-05-09T11:41:29.988Z,18861.7148
2023-05-09T11:42:38.246Z,18860.1426
2023-05-09T11:43:46.238Z,18857.7148
2023-05-09T11:44:54.337Z,18855.2852
2023-05-09T11:46:02.403Z,18852.4277
2023-05-09T11:47:10.513Z,18849.5723
2023-05-09T11:48:18.463Z,18852.0000
2023-05-09T11:49:26.618Z,18852.2852
2023-05-09T11:50:34.652Z,18855.7852
2023-05-09T11:51:42.775Z,18854.3574
2023-05-09T11:52:50.733Z,18849.1426
2023-05-09T11:53:58.644Z,18844.1426
2023-05-09T11:55:06.752Z,18835.1426
2023-05-09T11:56:14.743Z,18833.4277
2023-05-09T11:57:22.938Z,18830.5723
2023-05-09T11:58:31.202Z,18829.1426
2023-05-09T11:59:39.118Z,18828.5723
2023-05-09T12:00:47.113Z,18834.0723
2023-05-09T12:01:55.178Z,18850.3574
2023-05-09T12:03:03.353Z,18850.5723
2023-05-09T12:04:11.267Z,18850.7148
2023-05-09T12:05:19.410Z,18850.0000
2023-05-09T12:06:27.416Z,18845.2852
2023-05-09T12:07:35.481Z,18846.1426
2023-05-09T12:08:43.421Z,18846.6426
2023-05-09T12:09:51.511Z,18847.1426
2023-05-09T12:10:59.513Z,18848.5000
2023-05-09T12:12:07.775Z,18854.9277
2023-05-09T12:13:15.939Z,18865.6426
2023-05-09T12:14:24.022Z,18870.7852
2023-05-09T12:15:31.932Z,18871.4277
2023-05-09T12:16:40.285Z,18879.6426
2023-05-09T12:17:50.550Z,18890.6426
2023-05-09T12:19:00.984Z,18884.2676
2023-05-09T12:20:09.106Z,18879.7148
2023-05-09T12:21:17.188Z,18871.2852
2023-05-09T12:22:25.060Z,18862.8574
2023-05-09T12:23:33.145Z,18855.7148
2023-05-09T12:24:41.245Z,18856.2852
2023-05-09T12:25:49.384Z,18854.7852
2023-05-09T12:26:57.449Z,18851.2852
2023-05-09T12:28:05.454Z,18849.6426
2023-05-09T12:29:13.614Z,18848.3574
2023-05-09T12:30:21.728Z,18846.7148
2023-05-09T12:31:29.681Z,18843.2148
2023-05-09T12:32:37.929Z,18841.9277
2023-05-09T12:33:45.800Z,18848.5000
2023-05-09T12:34:53.858Z,18852.1426
2023-05-09T12:36:01.930Z,18860.0723